Time;durP1;ratioP1;P1;durP2;ratioP2;P2;SDS_P1;SDS_P2;PMS_P1;PMS_P2;Temp;Humidity;BMP_temperature;BMP_pressure;BME280_temperature;BME280_humidity;BME280_pressure;Samples;Min_cycle;Max_cycle;Signal;HPM_P1;HPM_P2
2021/06/30 00:02:11;;;;;;;34.05;18.05;;;17.60;99.90;;;;;;5009426;28;20034;-80
2021/06/30 00:04:37;;;;;;;30.25;17.77;;;17.70;99.90;;;;;;5014531;28;20538;-80
2021/06/30 00:07:04;;;;;;;30.60;18.67;;;17.80;99.90;;;;;;5014519;28;20541;-80
2021/06/30 00:09:30;;;;;;;29.13;18.48;;;17.80;99.90;;;;;;5014493;28;20026;-80
2021/06/30 00:11:56;;;;;;;23.50;16.75;;;17.80;99.90;;;;;;5003932;28;20118;-80
2021/06/30 00:14:22;;;;;;;25.50;15.95;;;17.80;99.90;;;;;;5009772;28;20647;-80
2021/06/30 00:16:49;;;;;;;27.10;17.20;;;17.90;99.90;;;;;;4994766;28;20030;-80
2021/06/30 00:19:14;;;;;;;22.08;15.68;;;17.90;99.90;;;;;;4994769;28;20078;-80
2021/06/30 00:21:40;;;;;;;26.90;15.85;;;18.00;99.90;;;;;;5014339;28;20121;-80
2021/06/30 00:24:07;;;;;;;24.98;16.25;;;17.90;99.90;;;;;;5029327;28;20025;-80
2021/06/30 00:26:34;;;;;;;23.90;15.88;;;17.90;99.90;;;;;;5014217;28;20470;-80
2021/06/30 00:29:00;;;;;;;28.08;18.15;;;18.00;99.90;;;;;;5014087;28;20367;-80
2021/06/30 00:31:26;;;;;;;21.88;16.58;;;18.00;99.90;;;;;;5013289;28;20084;-80
2021/06/30 00:33:51;;;;;;;26.45;16.13;;;18.00;99.90;;;;;;5011183;28;20029;-80
2021/06/30 00:36:17;;;;;;;18.50;14.07;;;18.00;99.90;;;;;;5013919;28;20394;-80
2021/06/30 00:38:42;;;;;;;24.10;15.50;;;18.00;99.90;;;;;;5029178;28;20375;-80
2021/06/30 00:41:08;;;;;;;24.45;14.43;;;17.90;99.90;;;;;;5013882;28;20030;-80
2021/06/30 00:43:33;;;;;;;22.15;15.30;;;18.00;99.90;;;;;;4998501;28;20078;-80
2021/06/30 00:45:59;;;;;;;26.30;16.52;;;17.90;99.90;;;;;;4994196;28;20034;-80
2021/06/30 00:48:25;;;;;;;22.27;14.82;;;18.00;99.90;;;;;;5013623;28;20532;-80
2021/06/30 00:50:50;;;;;;;22.80;16.23;;;18.00;99.90;;;;;;5028973;28;20024;-80
2021/06/30 00:53:16;;;;;;;26.52;16.15;;;18.00;99.90;;;;;;5018757;28;20124;-80
2021/06/30 00:55:42;;;;;;;23.50;14.52;;;18.00;99.90;;;;;;4994084;28;20022;-80
2021/06/30 00:58:08;;;;;;;17.63;13.15;;;18.00;99.90;;;;;;4992542;28;20026;-80
2021/06/30 01:00:33;;;;;;;30.27;17.73;;;18.10;99.90;;;;;;4993946;28;20062;-80
2021/06/30 01:02:59;;;;;;;27.80;17.48;;;18.00;99.90;;;;;;4997724;28;20048;-80
2021/06/30 01:05:25;;;;;;;25.95;17.52;;;18.00;99.90;;;;;;5004837;28;20034;-80
2021/06/30 01:07:50;;;;;;;25.48;17.25;;;17.90;99.90;;;;;;5009063;28;20483;-80
2021/06/30 01:10:16;;;;;;;23.95;15.35;;;17.90;99.90;;;;;;4993828;28;20364;-80
2021/06/30 01:12:42;;;;;;;23.50;17.33;;;17.90;99.90;;;;;;4992952;28;20034;-80
2021/06/30 01:15:10;;;;;;;29.70;16.83;;;17.90;99.90;;;;;;4993792;28;20487;-80
2021/06/30 01:17:36;;;;;;;27.02;16.35;;;17.90;99.90;;;;;;4993662;28;20027;-80
2021/06/30 01:20:03;;;;;;;20.40;14.52;;;17.90;99.90;;;;;;4992306;28;20030;-80
2021/06/30 01:22:28;;;;;;;33.25;18.80;;;18.00;99.90;;;;;;4992954;28;20233;-80
2021/06/30 01:24:54;;;;;;;21.98;15.60;;;17.90;99.90;;;;;;5007410;28;20033;-80
2021/06/30 01:27:29;;;;;;;24.80;16.70;;;17.90;99.90;;;;;;5013048;28;20030;-80
2021/06/30 01:29:55;;;;;;;29.08;16.95;;;17.90;99.90;;;;;;5004055;28;20029;-80
2021/06/30 01:32:20;;;;;;;23.48;16.77;;;17.90;99.90;;;;;;4993128;28;20483;-80
2021/06/30 01:34:47;;;;;;;26.05;17.83;;;17.90;99.90;;;;;;5003336;28;20026;-80
2021/06/30 01:37:12;;;;;;;27.58;17.02;;;17.90;99.90;;;;;;4998488;28;20090;-80
2021/06/30 01:39:38;;;;;;;31.80;16.65;;;17.90;99.90;;;;;;4993223;28;20031;-80
2021/06/30 01:42:04;;;;;;;28.33;17.80;;;17.80;99.90;;;;;;4992909;28;20045;-80
2021/06/30 01:44:29;;;;;;;29.25;18.55;;;17.80;99.90;;;;;;5010478;28;20056;-80
2021/06/30 01:46:55;;;;;;;33.97;17.02;;;17.70;99.90;;;;;;4993163;28;20463;-80
2021/06/30 01:49:21;;;;;;;28.20;18.05;;;17.70;99.90;;;;;;4993105;28;20026;-80
2021/06/30 01:51:46;;;;;;;33.33;19.17;;;17.60;99.90;;;;;;4991457;28;20019;-80
2021/06/30 01:54:15;;;;;;;40.78;19.48;;;17.60;99.90;;;;;;5007936;28;20038;-80
2021/06/30 01:56:42;;;;;;;40.80;19.80;;;17.60;99.90;;;;;;5006649;28;20411;-80
2021/06/30 01:59:13;;;;;;;40.88;17.77;;;17.50;99.90;;;;;;4992890;28;20026;-80
2021/06/30 02:01:40;;;;;;;31.30;18.55;;;17.50;99.90;;;;;;5007683;28;20053;-80
2021/06/30 02:04:07;;;;;;;33.55;18.90;;;17.50;99.90;;;;;;4992665;28;20462;-80
2021/06/30 02:06:40;;;;;;;32.70;17.80;;;17.40;99.90;;;;;;5023860;28;20084;-80
2021/06/30 02:09:09;;;;;;;31.70;19.13;;;17.40;99.90;;;;;;5011959;28;20148;-80
2021/06/30 02:11:35;;;;;;;40.58;21.08;;;17.50;99.90;;;;;;5012084;28;20026;-80
2021/06/30 02:14:01;;;;;;;39.90;21.23;;;17.30;99.90;;;;;;5011025;28;20029;-80
2021/06/30 02:16:26;;;;;;;35.13;20.23;;;17.30;99.90;;;;;;4999264;28;20113;-80
2021/06/30 02:18:52;;;;;;;27.77;18.58;;;17.30;99.90;;;;;;4992515;28;20105;-80
2021/06/30 02:21:19;;;;;;;37.65;20.23;;;17.30;99.90;;;;;;4992293;28;20033;-80
2021/06/30 02:23:45;;;;;;;43.40;20.10;;;17.30;99.90;;;;;;4992446;28;20038;-80
2021/06/30 02:26:11;;;;;;;30.67;19.52;;;17.20;99.90;;;;;;5014944;28;20076;-80
2021/06/30 02:28:36;;;;;;;37.85;21.00;;;17.20;99.90;;;;;;5009162;28;20065;-80
2021/06/30 02:31:02;;;;;;;42.70;20.55;;;17.20;99.90;;;;;;4992476;28;20021;-80
2021/06/30 02:33:28;;;;;;;37.22;19.65;;;17.10;99.90;;;;;;4992065;28;20069;-80
2021/06/30 02:35:54;;;;;;;34.40;19.15;;;17.10;99.90;;;;;;4994601;28;20038;-80
2021/06/30 02:38:20;;;;;;;54.65;24.75;;;17.10;99.90;;;;;;5012090;28;20053;-80
2021/06/30 02:40:46;;;;;;;35.15;21.35;;;17.00;99.90;;;;;;5012057;28;20049;-80
2021/06/30 02:43:11;;;;;;;35.38;20.92;;;16.90;99.90;;;;;;5011676;28;20037;-80
2021/06/30 02:45:37;;;;;;;38.92;21.38;;;17.00;99.90;;;;;;5011968;28;20033;-80
2021/06/30 02:48:03;;;;;;;38.55;22.02;;;17.00;99.90;;;;;;4994379;28;20026;-80
2021/06/30 02:50:29;;;;;;;39.63;22.40;;;16.90;99.90;;;;;;4992285;28;20095;-80
2021/06/30 02:52:55;;;;;;;42.45;22.65;;;16.80;99.90;;;;;;4992075;28;20077;-80
2021/06/30 02:55:21;;;;;;;43.30;25.00;;;16.70;99.90;;;;;;4992327;28;20035;-80
2021/06/30 02:57:48;;;;;;;43.83;22.20;;;16.70;99.90;;;;;;5019237;28;20026;-80
2021/06/30 03:00:25;;;;;;;48.05;24.00;;;16.60;99.90;;;;;;5011866;28;20026;-80
2021/06/30 03:02:51;;;;;;;46.05;23.25;;;16.60;99.90;;;;;;5010085;28;20041;-80
2021/06/30 03:05:17;;;;;;;54.92;23.70;;;16.50;99.90;;;;;;5011834;28;20096;-80
2021/06/30 03:07:43;;;;;;;42.83;24.58;;;16.60;99.90;;;;;;5001550;28;20482;-80
2021/06/30 03:10:11;;;;;;;43.97;25.02;;;16.60;99.90;;;;;;4992315;28;20054;-80
2021/06/30 03:12:38;;;;;;;43.22;22.38;;;16.50;99.90;;;;;;5006953;28;20438;-80
2021/06/30 03:15:05;;;;;;;34.63;21.23;;;16.50;99.90;;;;;;4992105;28;20037;-80
2021/06/30 03:17:34;;;;;;;40.92;23.58;;;16.40;99.90;;;;;;4995955;28;20033;-80
2021/06/30 03:19:59;;;;;;;39.33;21.95;;;16.30;99.90;;;;;;5011726;28;20380;-81
2021/06/30 03:22:25;;;;;;;39.03;21.67;;;16.30;99.90;;;;;;5012759;28;20076;-80
2021/06/30 03:24:51;;;;;;;50.38;23.27;;;16.40;99.90;;;;;;5015393;28;20018;-80
2021/06/30 03:27:16;;;;;;;41.45;23.38;;;16.30;99.90;;;;;;5015323;28;20028;-80
2021/06/30 03:29:42;;;;;;;34.97;21.00;;;16.40;99.90;;;;;;5010889;28;20402;-80
2021/06/30 03:32:07;;;;;;;47.47;22.00;;;16.30;99.90;;;;;;4995370;28;20053;-80
2021/06/30 03:34:33;;;;;;;40.83;20.90;;;16.20;99.90;;;;;;4995466;28;20065;-80
2021/06/30 03:36:59;;;;;;;43.67;26.30;;;16.20;99.90;;;;;;4995569;28;20105;-80
2021/06/30 03:39:24;;;;;;;38.25;24.83;;;16.10;99.90;;;;;;5009210;28;20490;-80
2021/06/30 03:41:50;;;;;;;46.72;22.55;;;16.10;99.90;;;;;;5030088;28;20018;-80
2021/06/30 03:44:15;;;;;;;48.08;22.42;;;16.10;99.90;;;;;;5014748;28;20509;-80
2021/06/30 03:46:41;;;;;;;40.05;23.60;;;16.20;99.90;;;;;;5014861;28;20034;-80
2021/06/30 03:49:07;;;;;;;43.75;23.05;;;16.20;99.90;;;;;;5005930;28;20165;-80
2021/06/30 03:51:32;;;;;;;44.95;23.48;;;16.20;99.90;;;;;;4995104;28;20022;-80
2021/06/30 03:53:58;;;;;;;45.30;23.05;;;16.20;99.90;;;;;;4995184;28;20026;-79
2021/06/30 03:56:26;;;;;;;47.83;24.75;;;16.10;99.90;;;;;;4995231;28;20105;-80
2021/06/30 03:58:55;;;;;;;45.33;22.38;;;16.10;99.90;;;;;;4994338;28;20033;-81
2021/06/30 04:01:22;;;;;;;63.78;23.92;;;16.20;99.90;;;;;;4994851;28;20126;-80
2021/06/30 04:03:53;;;;;;;41.83;24.23;;;16.20;99.90;;;;;;4994955;28;20109;-80
2021/06/30 04:06:20;;;;;;;41.28;21.02;;;16.20;99.90;;;;;;4995073;28;20027;-80
2021/06/30 04:08:45;;;;;;;40.55;21.85;;;16.30;99.90;;;;;;4994865;28;20097;-80
2021/06/30 04:11:11;;;;;;;41.58;21.90;;;16.40;99.90;;;;;;5014442;28;20106;-80
2021/06/30 04:13:37;;;;;;;48.08;22.67;;;16.40;99.90;;;;;;5014128;28;20037;-80
2021/06/30 04:16:02;;;;;;;43.10;21.52;;;16.40;99.90;;;;;;5014423;28;20085;-80
2021/06/30 04:18:28;;;;;;;39.58;19.42;;;16.50;99.90;;;;;;5014554;28;20080;-80
2021/06/30 04:20:53;;;;;;;40.45;20.67;;;16.60;99.90;;;;;;4997735;28;20449;-80
2021/06/30 04:23:19;;;;;;;39.22;21.75;;;16.70;99.90;;;;;;4994413;28;20057;-80
2021/06/30 04:25:47;;;;;;;31.42;19.38;;;16.70;99.90;;;;;;4994646;28;20529;-80
2021/06/30 04:28:13;;;;;;;41.83;19.85;;;16.70;99.90;;;;;;4994664;28;20105;-80
2021/06/30 04:30:40;;;;;;;36.35;19.75;;;16.80;99.90;;;;;;5001366;28;20033;-80
2021/06/30 04:33:05;;;;;;;38.85;18.77;;;16.80;99.90;;;;;;5028629;28;20022;-80
2021/06/30 04:35:31;;;;;;;39.53;20.00;;;16.80;99.90;;;;;;5014009;28;20091;-80
2021/06/30 04:37:56;;;;;;;42.70;17.95;;;16.80;99.90;;;;;;5014046;28;20026;-80
2021/06/30 04:40:22;;;;;;;24.27;16.73;;;16.90;99.90;;;;;;5008985;28;20027;-80
2021/06/30 04:42:48;;;;;;;30.70;18.85;;;16.80;99.90;;;;;;4993921;28;20030;-80
2021/06/30 04:45:14;;;;;;;41.95;17.77;;;16.90;99.90;;;;;;5013598;28;20486;-80
2021/06/30 04:47:39;;;;;;;38.45;17.13;;;16.80;99.90;;;;;;5029038;28;20021;-80
2021/06/30 04:50:05;;;;;;;29.77;17.40;;;16.70;99.90;;;;;;5013796;28;20497;-80
2021/06/30 04:52:31;;;;;;;40.95;18.20;;;16.90;99.90;;;;;;5013174;28;20029;-79
2021/06/30 04:54:57;;;;;;;31.33;17.88;;;16.80;99.90;;;;;;5013659;28;20026;-80
2021/06/30 04:57:22;;;;;;;35.05;17.38;;;16.80;99.90;;;;;;5013640;28;20042;-80
2021/06/30 04:59:48;;;;;;;26.23;17.40;;;16.80;99.90;;;;;;5013392;28;20538;-79
2021/06/30 05:02:15;;;;;;;29.85;16.42;;;16.90;99.90;;;;;;4997665;28;20030;-80
2021/06/30 05:04:41;;;;;;;27.52;17.13;;;16.90;99.90;;;;;;4993847;28;20172;-79
2021/06/30 05:07:06;;;;;;;27.20;16.00;;;16.80;99.90;;;;;;4993907;28;20098;-79
2021/06/30 05:09:32;;;;;;;29.58;15.98;;;16.80;99.90;;;;;;4993881;28;20026;-79
2021/06/30 05:11:57;;;;;;;32.50;16.25;;;16.90;99.90;;;;;;5017480;28;20029;-80
2021/06/30 05:14:23;;;;;;;29.92;16.15;;;16.90;99.90;;;;;;5028341;28;20084;-79
2021/06/30 05:16:48;;;;;;;31.58;17.92;;;16.90;99.90;;;;;;5013252;28;20037;-79
2021/06/30 05:19:14;;;;;;;32.28;16.85;;;16.90;99.90;;;;;;5028457;28;20500;-79
2021/06/30 05:21:39;;;;;;;38.03;17.77;;;16.80;99.90;;;;;;5008272;28;20026;-79
2021/06/30 05:24:05;;;;;;;30.42;16.20;;;16.80;99.90;;;;;;5008485;28;20026;-79
2021/06/30 05:26:31;;;;;;;31.52;17.08;;;16.70;99.90;;;;;;5008608;28;20077;-79
2021/06/30 05:28:56;;;;;;;28.73;16.48;;;16.80;99.90;;;;;;5008534;28;20026;-80
2021/06/30 05:31:22;;;;;;;33.92;15.90;;;16.80;99.90;;;;;;4993234;28;20026;-79
2021/06/30 05:33:47;;;;;;;33.67;16.58;;;16.90;99.90;;;;;;5008500;28;20087;-80
2021/06/30 05:36:13;;;;;;;29.42;16.02;;;17.10;99.90;;;;;;5012913;28;20060;-80
2021/06/30 05:38:38;;;;;;;26.45;15.60;;;17.10;99.90;;;;;;5012940;28;20065;-80
2021/06/30 05:41:04;;;;;;;31.40;15.85;;;17.20;99.90;;;;;;5012763;28;20026;-80
2021/06/30 05:43:29;;;;;;;31.17;15.77;;;17.20;99.90;;;;;;4999880;28;20038;-80
2021/06/30 05:45:56;;;;;;;33.38;16.30;;;17.30;99.90;;;;;;5008220;28;20027;-80
2021/06/30 05:48:21;;;;;;;30.10;16.88;;;17.40;99.90;;;;;;4993135;28;20093;-80
2021/06/30 05:50:47;;;;;;;27.67;15.20;;;17.40;99.90;;;;;;4992920;28;20057;-79
2021/06/30 05:53:12;;;;;;;38.75;14.88;;;17.50;99.90;;;;;;4997594;28;20033;-80
2021/06/30 05:55:38;;;;;;;23.20;15.45;;;17.70;99.90;;;;;;5027697;28;20030;-80
2021/06/30 05:58:03;;;;;;;35.38;16.05;;;17.70;99.90;;;;;;5011235;28;20545;-79
2021/06/30 06:00:29;;;;;;;35.50;16.02;;;17.90;99.90;;;;;;5011557;28;20112;-80
2021/06/30 06:02:55;;;;;;;23.38;14.60;;;18.00;99.90;;;;;;5009001;28;20123;-79
2021/06/30 06:05:21;;;;;;;23.17;13.52;;;18.30;99.90;;;;;;5012186;28;20030;-79
2021/06/30 06:07:46;;;;;;;29.58;13.98;;;18.30;99.90;;;;;;5012209;28;20022;-79
2021/06/30 06:10:12;;;;;;;29.00;14.50;;;18.30;99.90;;;;;;5027171;28;20570;-80
2021/06/30 06:12:38;;;;;;;32.42;14.95;;;18.30;99.90;;;;;;5011911;28;20036;-79
2021/06/30 06:15:09;;;;;;;33.28;15.30;;;18.60;99.90;;;;;;4994884;28;20061;-79
2021/06/30 06:17:35;;;;;;;24.40;14.15;;;18.70;99.90;;;;;;4992624;28;20081;-80
2021/06/30 06:20:01;;;;;;;33.03;14.75;;;19.00;99.90;;;;;;5007551;28;20057;-79
2021/06/30 06:22:26;;;;;;;26.60;14.52;;;19.10;99.90;;;;;;4992042;28;20070;-80
2021/06/30 06:24:52;;;;;;;36.40;16.05;;;19.30;99.90;;;;;;5003372;28;20053;-79
2021/06/30 06:27:18;;;;;;;23.13;13.18;;;19.50;99.90;;;;;;5012035;28;20026;-80
2021/06/30 06:29:43;;;;;;;21.48;14.18;;;19.50;99.90;;;;;;5012025;28;20026;-79
2021/06/30 06:32:09;;;;;;;25.30;14.23;;;19.60;99.90;;;;;;5011948;28;20509;-79
2021/06/30 06:34:35;;;;;;;31.13;13.27;;;19.70;99.90;;;;;;5020679;28;20057;-80
2021/06/30 06:37:01;;;;;;;31.95;15.45;;;19.80;99.90;;;;;;4992363;28;20045;-79
2021/06/30 06:39:28;;;;;;;34.50;14.95;;;20.00;99.90;;;;;;4992316;28;20022;-80
2021/06/30 06:41:54;;;;;;;24.77;14.65;;;20.00;99.90;;;;;;4992102;28;20030;-79
2021/06/30 06:44:20;;;;;;;23.83;13.55;;;20.20;99.90;;;;;;4991844;28;20049;-79
2021/06/30 06:46:46;;;;;;;29.35;15.45;;;20.20;99.90;;;;;;5010666;28;20030;-79
2021/06/30 06:49:12;;;;;;;27.38;13.80;;;20.30;99.90;;;;;;5011844;28;20026;-79
2021/06/30 06:51:38;;;;;;;20.15;14.18;;;20.60;99.90;;;;;;5004570;28;20527;-80
2021/06/30 06:54:05;;;;;;;28.90;14.23;;;20.70;99.90;;;;;;4992076;28;20122;-79
2021/06/30 06:56:31;;;;;;;30.85;14.93;;;20.70;99.90;;;;;;5010397;28;20026;-79
2021/06/30 06:58:56;;;;;;;22.42;13.40;;;20.70;99.90;;;;;;4996184;28;20084;-80
2021/06/30 07:01:23;;;;;;;33.53;14.30;;;20.60;99.90;;;;;;4996869;28;20027;-79
2021/06/30 07:03:49;;;;;;;23.27;13.93;;;20.50;99.90;;;;;;4995988;28;20029;-79
2021/06/30 07:06:15;;;;;;;30.17;14.75;;;20.50;99.90;;;;;;4996044;28;20105;-79
2021/06/30 07:08:40;;;;;;;37.65;14.60;;;20.70;99.90;;;;;;4995301;28;20026;-78
2021/06/30 07:11:09;;;;;;;35.33;16.02;;;21.00;99.90;;;;;;5012044;28;20052;-79
2021/06/30 07:13:35;;;;;;;29.15;14.20;;;21.00;99.90;;;;;;5026609;28;20120;-79
2021/06/30 07:16:01;;;;;;;22.40;12.45;;;21.10;99.90;;;;;;5015543;28;20402;-79
2021/06/30 07:18:26;;;;;;;17.33;11.63;;;21.10;99.90;;;;;;5015567;28;20030;-79
2021/06/30 07:20:52;;;;;;;36.15;14.80;;;21.20;99.90;;;;;;5013671;28;20065;-80
2021/06/30 07:23:18;;;;;;;18.17;12.60;;;21.40;99.90;;;;;;5002717;28;20030;-79
2021/06/30 07:25:43;;;;;;;24.08;13.82;;;21.40;99.90;;;;;;4995656;28;20113;-79
2021/06/30 07:28:09;;;;;;;19.45;12.13;;;21.50;99.90;;;;;;4995669;28;20117;-79
2021/06/30 07:30:36;;;;;;;24.30;14.18;;;21.80;99.90;;;;;;4995544;28;20022;-79
2021/06/30 07:33:02;;;;;;;18.20;12.20;;;22.20;99.90;;;;;;5012756;28;20041;-79
2021/06/30 07:35:28;;;;;;;23.02;11.80;;;22.50;99.90;;;;;;4995525;28;20034;-78
2021/06/30 07:37:54;;;;;;;23.80;12.50;;;22.80;99.90;;;;;;4995561;28;20056;-79
2021/06/30 07:40:19;;;;;;;17.55;12.07;;;23.20;99.90;;;;;;4994240;28;20112;-78
2021/06/30 07:42:45;;;;;;;22.65;12.43;;;23.30;99.90;;;;;;4994960;28;20149;-79
2021/06/30 07:45:11;;;;;;;19.13;12.52;;;23.30;99.90;;;;;;5011120;28;20080;-78
2021/06/30 07:47:37;;;;;;;29.02;12.68;;;23.60;99.90;;;;;;5030056;28;20482;-79
2021/06/30 07:50:05;;;;;;;27.88;12.75;;;23.70;99.90;;;;;;5013621;28;20028;-79
2021/06/30 07:52:31;;;;;;;31.05;12.98;;;23.50;99.90;;;;;;5014418;28;20018;-79
2021/06/30 07:54:57;;;;;;;26.92;13.48;;;23.50;99.90;;;;;;5003261;28;20019;-79
2021/06/30 07:57:22;;;;;;;28.42;13.23;;;23.30;99.90;;;;;;4995100;28;20031;-80
2021/06/30 07:59:48;;;;;;;24.88;13.43;;;22.90;99.90;;;;;;5010009;28;20093;-80
2021/06/30 08:02:13;;;;;;;21.33;12.85;;;22.60;99.90;;;;;;5009863;28;20023;-80
2021/06/30 08:04:39;;;;;;;28.90;13.07;;;22.30;99.90;;;;;;4999520;28;20026;-80
2021/06/30 08:07:05;;;;;;;26.15;14.70;;;22.10;99.90;;;;;;5013580;28;20506;-81
2021/06/30 08:09:33;;;;;;;25.48;14.93;;;21.90;99.90;;;;;;5014457;28;20030;-80
2021/06/30 08:12:01;;;;;;;26.05;13.38;;;21.70;99.90;;;;;;5014085;28;20487;-80
2021/06/30 08:14:27;;;;;;;27.48;13.65;;;21.80;99.90;;;;;;5011228;28;20030;-80
2021/06/30 08:16:53;;;;;;;29.42;14.38;;;21.70;99.90;;;;;;4995889;28;20037;-80
2021/06/30 08:19:18;;;;;;;34.28;15.88;;;21.50;99.90;;;;;;4993996;28;20030;-80
2021/06/30 08:21:44;;;;;;;33.75;16.70;;;21.40;99.90;;;;;;4994037;28;20034;-80
2021/06/30 08:24:09;;;;;;;24.60;15.40;;;21.30;99.90;;;;;;5012239;28;20114;-80
2021/06/30 08:26:35;;;;;;;29.10;16.42;;;21.60;99.90;;;;;;5017696;28;20698;-79
2021/06/30 08:29:01;;;;;;;27.48;15.23;;;21.70;99.90;;;;;;5026646;28;20626;-79
2021/06/30 08:31:27;;;;;;;24.63;14.48;;;22.00;99.90;;;;;;5009771;28;20446;-79
2021/06/30 08:33:52;;;;;;;18.08;13.27;;;22.40;99.90;;;;;;5018545;28;20107;-79
2021/06/30 08:36:18;;;;;;;25.33;14.75;;;22.50;99.90;;;;;;5018266;28;20048;-79
2021/06/30 08:38:44;;;;;;;31.98;15.23;;;22.50;99.90;;;;;;5016317;28;20035;-79
2021/06/30 08:41:09;;;;;;;29.70;15.77;;;22.40;99.90;;;;;;5016772;28;20083;-78
2021/06/30 08:43:35;;;;;;;30.13;15.18;;;22.30;99.90;;;;;;5019372;28;20426;-79
2021/06/30 08:46:02;;;;;;;25.65;15.07;;;22.60;99.90;;;;;;5011920;28;20099;-79
2021/06/30 08:48:29;;;;;;;25.30;12.57;;;22.90;99.90;;;;;;5027906;28;20021;-79
2021/06/30 08:50:57;;;;;;;22.25;14.27;;;23.00;99.90;;;;;;5021126;28;20026;-80
2021/06/30 08:53:23;;;;;;;22.55;13.70;;;23.40;99.90;;;;;;5009525;28;20093;-79
2021/06/30 08:55:49;;;;;;;24.02;14.70;;;23.60;99.90;;;;;;5007923;28;20117;-80
2021/06/30 08:58:15;;;;;;;26.50;14.18;;;23.80;99.90;;;;;;5021596;28;20121;-80
2021/06/30 09:00:43;;;;;;;24.80;12.80;;;23.80;99.90;;;;;;5023453;28;20022;-80
2021/06/30 09:03:15;;;;;;;21.80;12.50;;;23.90;99.90;;;;;;5025944;28;20433;-80
2021/06/30 09:08:39;;;;;;;21.33;13.65;;;24.10;99.90;;;;;;5009343;28;20080;-80
2021/06/30 09:11:13;;;;;;;17.02;11.52;;;24.30;99.90;;;;;;5014187;28;20038;-80
2021/06/30 09:13:39;;;;;;;23.88;13.23;;;24.50;99.90;;;;;;5027099;28;20036;-80
2021/06/30 09:16:05;;;;;;;19.15;10.90;;;24.60;99.90;;;;;;5013317;28;20050;-80
2021/06/30 09:18:39;;;;;;;20.23;12.13;;;24.60;99.90;;;;;;5009279;28;20041;-80
2021/06/30 09:21:19;;;;;;;27.98;12.38;;;24.30;99.90;;;;;;5019148;28;20400;-80
2021/06/30 09:23:57;;;;;;;20.63;12.23;;;24.30;99.90;;;;;;5014180;28;20017;-81
2021/06/30 09:26:23;;;;;;;28.35;14.23;;;24.20;99.90;;;;;;5013235;28;20508;-81
2021/06/30 09:28:48;;;;;;;26.38;13.63;;;24.00;99.90;;;;;;5014920;28;20112;-81
2021/06/30 09:31:15;;;;;;;27.33;15.20;;;24.00;99.90;;;;;;5015442;28;20406;-81
2021/06/30 09:33:51;;;;;;;32.42;15.27;;;23.70;99.90;;;;;;5017500;28;20029;-82
2021/06/30 09:36:17;;;;;;;26.35;14.90;;;23.60;99.90;;;;;;5015228;28;20029;-82
2021/06/30 09:38:44;;;;;;;21.05;14.20;;;23.80;99.90;;;;;;5016907;28;20036;-82
2021/06/30 09:41:30;;;;;;;30.73;15.65;;;23.90;99.90;;;;;;5016880;28;20525;-82
2021/06/30 09:44:10;;;;;;;23.75;14.13;;;23.90;99.90;;;;;;5016626;28;20041;-81
2021/06/30 09:46:38;;;;;;;26.20;16.58;;;24.00;99.90;;;;;;5008699;28;20018;-79
2021/06/30 09:49:07;;;;;;;27.27;13.68;;;23.90;99.90;;;;;;5017452;28;20022;-80
2021/06/30 09:51:33;;;;;;;25.17;14.02;;;23.80;99.90;;;;;;5001576;28;20072;-81
2021/06/30 09:54:08;;;;;;;29.67;15.40;;;24.00;99.90;;;;;;5018157;28;20033;-81
2021/06/30 09:59:13;;;;;;;26.23;14.00;;;24.70;99.90;;;;;;5018375;28;20038;-81
2021/06/30 10:01:39;;;;;;;29.50;14.68;;;24.80;99.90;;;;;;5008962;28;20378;-81
2021/06/30 10:04:05;;;;;;;28.90;14.52;;;25.10;99.90;;;;;;5008689;28;20040;-82
2021/06/30 10:06:36;;;;;;;24.52;15.00;;;25.60;99.90;;;;;;5008385;28;20433;-81
2021/06/30 10:09:05;;;;;;;23.65;14.75;;;25.80;99.90;;;;;;5015692;28;20026;-81
2021/06/30 10:11:32;;;;;;;21.17;13.25;;;25.70;99.90;;;;;;5016068;28;20018;-80
2021/06/30 10:13:59;;;;;;;24.08;14.57;;;25.30;99.90;;;;;;5009875;28;20030;-79
2021/06/30 10:16:25;;;;;;;27.85;14.43;;;24.90;99.90;;;;;;5016239;28;20112;-78
2021/06/30 10:18:53;;;;;;;23.02;14.05;;;24.40;99.90;;;;;;5010056;28;20666;-80
2021/06/30 10:21:22;;;;;;;25.48;15.65;;;24.30;99.90;;;;;;5011466;28;20556;-78
2021/06/30 10:23:48;;;;;;;22.00;13.60;;;24.00;99.90;;;;;;5012019;28;20022;-78
2021/06/30 10:26:15;;;;;;;25.30;14.75;;;24.10;99.90;;;;;;5010953;28;20027;-77
2021/06/30 10:28:46;;;;;;;21.00;12.75;;;24.20;99.90;;;;;;5010687;28;20536;-77
2021/06/30 10:31:12;;;;;;;23.98;13.75;;;24.30;99.90;;;;;;4994887;28;20030;-77
2021/06/30 10:33:40;;;;;;;23.23;13.68;;;24.10;99.90;;;;;;4992327;28;20080;-77
2021/06/30 10:36:10;;;;;;;29.15;14.68;;;24.20;99.90;;;;;;4991253;28;20030;-77
2021/06/30 10:38:54;;;;;;;23.35;14.82;;;24.10;99.90;;;;;;5007480;28;20064;-77
2021/06/30 10:41:40;;;;;;;25.02;15.52;;;24.00;99.90;;;;;;5007872;28;20056;-77
2021/06/30 10:44:13;;;;;;;26.00;13.57;;;24.00;99.90;;;;;;4992257;28;20102;-78
2021/06/30 10:46:39;;;;;;;;;;;23.80;99.90;;;;;;4992877;28;20019;-77
2021/06/30 10:49:14;;;;;;;19.70;14.00;;;23.50;99.90;;;;;;4992339;28;19917;-77
2021/06/30 10:51:40;;;;;;;19.35;13.82;;;23.30;99.90;;;;;;5007039;28;20042;-77
2021/06/30 10:54:32;;;;;;;20.52;14.68;;;23.40;99.90;;;;;;5007334;28;20172;-77
2021/06/30 10:57:23;;;;;;;25.45;13.43;;;23.30;99.90;;;;;;4976442;28;20494;-77
2021/06/30 10:59:58;;;;;;;19.50;13.15;;;23.30;99.90;;;;;;5007323;28;20077;-79
2021/06/30 11:02:24;;;;;;;28.98;14.45;;;23.10;99.90;;;;;;5008576;28;20030;-79
2021/06/30 11:04:50;;;;;;;27.80;14.88;;;23.10;99.90;;;;;;5011740;28;20081;-78
2021/06/30 11:07:35;;;;;;;33.00;14.75;;;23.00;99.90;;;;;;5011643;28;20169;-78
2021/06/30 11:10:16;;;;;;;29.02;16.02;;;23.20;99.90;;;;;;5011742;28;20026;-78
2021/06/30 11:13:07;;;;;;;26.02;14.32;;;23.30;99.90;;;;;;4995012;28;20430;-81
2021/06/30 11:15:39;;;;;;;24.52;15.93;;;23.50;99.90;;;;;;4996137;28;20072;-79
2021/06/30 11:18:12;;;;;;;33.40;14.93;;;23.30;99.90;;;;;;5022822;28;20115;-79
2021/06/30 11:20:52;;;;;;;24.33;15.55;;;23.20;99.90;;;;;;5024952;28;20021;-79
2021/06/30 11:23:26;;;;;;;23.63;13.65;;;23.10;99.90;;;;;;5024242;28;20029;-79
2021/06/30 11:25:54;;;;;;;26.20;15.35;;;23.10;99.90;;;;;;5022420;28;20022;-81
2021/06/30 11:28:36;;;;;;;51.80;16.52;;;23.00;99.90;;;;;;5026592;28;20462;-80
2021/06/30 11:31:24;;;;;;;26.45;16.10;;;23.00;99.90;;;;;;5000296;28;20038;-78
2021/06/30 11:34:20;;;;;;;28.65;15.32;;;23.20;99.90;;;;;;4984403;28;20407;-79
2021/06/30 11:36:45;;;;;;;20.98;13.70;;;23.60;99.90;;;;;;5007882;28;20026;-79
2021/06/30 11:39:15;;;;;;;24.88;13.77;;;24.20;99.90;;;;;;5009391;28;20033;-79
2021/06/30 11:41:42;;;;;;;27.27;14.00;;;25.40;99.90;;;;;;5007492;28;20022;-79
2021/06/30 11:44:10;;;;;;;22.50;14.55;;;26.50;99.90;;;;;;5024939;28;20069;-79
2021/06/30 11:46:37;;;;;;;25.95;12.13;;;27.00;99.90;;;;;;5014961;28;20022;-79
2021/06/30 11:49:03;;;;;;;24.33;13.60;;;27.50;99.90;;;;;;5013675;28;20421;-81
2021/06/30 11:51:29;;;;;;;21.45;13.80;;;27.50;99.90;;;;;;5003136;28;20023;-79
2021/06/30 11:53:55;;;;;;;24.65;12.85;;;27.30;99.90;;;;;;5010595;28;20040;-79
2021/06/30 11:56:41;;;;;;;23.35;13.75;;;26.60;99.90;;;;;;5019666;28;20052;-80
2021/06/30 11:59:18;;;;;;;27.58;12.82;;;26.10;99.90;;;;;;5027296;28;20030;-80
2021/06/30 12:01:45;;;;;;;22.85;11.10;;;25.90;99.90;;;;;;5013215;28;20107;-80
2021/06/30 12:04:26;;;;;;;25.75;12.50;;;25.90;99.90;;;;;;5010747;28;20049;-80
2021/06/30 12:06:58;;;;;;;26.30;11.98;;;25.70;99.90;;;;;;5013476;28;20029;-80
2021/06/30 12:09:29;;;;;;;24.67;13.07;;;25.30;99.90;;;;;;5012267;28;20022;-80
2021/06/30 12:11:57;;;;;;;16.83;11.55;;;24.80;99.90;;;;;;5011102;28;20034;-80
2021/06/30 12:14:28;;;;;;;25.80;14.95;;;24.40;99.90;;;;;;4994368;28;20026;-79
2021/06/30 12:17:00;;;;;;;44.83;19.77;;;24.20;99.90;;;;;;4993685;28;20026;-80
2021/06/30 12:19:49;;;;;;;54.13;20.35;;;23.70;99.90;;;;;;4993816;28;20026;-81
2021/06/30 12:22:27;;;;;;;33.72;18.65;;;23.50;99.90;;;;;;4999796;28;20040;-80
2021/06/30 12:24:59;;;;;;;30.10;16.30;;;23.40;99.90;;;;;;4998440;28;20031;-81
2021/06/30 12:27:28;;;;;;;37.67;21.13;;;23.40;99.90;;;;;;4993430;28;20018;-81
2021/06/30 12:29:59;;;;;;;39.97;20.13;;;23.40;99.90;;;;;;4992246;28;20025;-79
2021/06/30 12:32:25;;;;;;;31.70;20.42;;;23.50;99.90;;;;;;5007162;28;20023;-79
2021/06/30 12:34:56;;;;;;;37.45;21.02;;;23.50;99.90;;;;;;5003867;28;20088;-79
2021/06/30 12:37:23;;;;;;;35.30;21.30;;;23.60;99.90;;;;;;5013049;28;20052;-80